createdAt,value
2018-12-12T00:01:49.852Z,1.60
2018-12-12T00:04:20.180Z,1.60
2018-12-12T00:06:50.117Z,1.70
2018-12-12T00:09:19.191Z,1.70
2018-12-12T00:11:48.362Z,1.60
2018-12-12T00:14:17.112Z,1.60
2018-12-12T00:16:46.608Z,1.60
2018-12-12T00:19:16.852Z,1.60
2018-12-12T00:21:47.000Z,1.60
2018-12-12T00:24:16.799Z,1.60
2018-12-12T00:26:47.619Z,1.60
2018-12-12T00:29:16.839Z,1.60
2018-12-12T00:31:47.120Z,1.60
2018-12-12T00:34:16.369Z,1.70
2018-12-12T00:36:45.899Z,1.60
2018-12-12T00:39:16.644Z,1.60
2018-12-12T00:41:45.984Z,1.70
2018-12-12T00:44:16.617Z,1.70
2018-12-12T00:46:46.734Z,1.70
2018-12-12T00:49:17.220Z,1.80
2018-12-12T00:51:46.946Z,1.70
2018-12-12T00:54:16.256Z,1.60
2018-12-12T00:56:45.745Z,1.50
2018-12-12T00:59:13.960Z,1.50
2018-12-12T01:01:43.540Z,1.50
2018-12-12T01:04:14.404Z,1.40
2018-12-12T01:06:43.585Z,1.40
2018-12-12T01:09:14.165Z,1.40
2018-12-12T01:11:48.534Z,1.50
2018-12-12T01:14:18.653Z,1.50
2018-12-12T01:16:48.327Z,1.50
2018-12-12T01:19:17.840Z,1.50
2018-12-12T01:21:47.968Z,1.50
2018-12-12T01:24:17.152Z,1.50
2018-12-12T01:26:46.199Z,1.50
2018-12-12T01:29:14.937Z,1.60
2018-12-12T01:31:44.662Z,1.70
2018-12-12T01:34:15.062Z,1.70
2018-12-12T01:36:44.962Z,1.80
2018-12-12T01:39:14.597Z,1.80
2018-12-12T01:41:43.912Z,1.80
2018-12-12T01:44:13.696Z,1.80
2018-12-12T01:46:43.684Z,1.70
2018-12-12T01:49:13.468Z,1.70
2018-12-12T01:51:44.610Z,1.70
2018-12-12T01:54:13.920Z,1.70
2018-12-12T01:56:44.000Z,1.60
2018-12-12T01:59:14.296Z,1.50
2018-12-12T02:01:44.548Z,1.50
2018-12-12T02:04:13.719Z,1.50
2018-12-12T02:06:43.940Z,1.50
2018-12-12T02:09:13.893Z,1.60
2018-12-12T02:11:43.024Z,1.60
2018-12-12T02:14:12.580Z,1.70
2018-12-12T02:16:42.294Z,1.60
2018-12-12T02:19:12.057Z,1.40
2018-12-12T02:21:42.300Z,1.40
2018-12-12T02:24:11.737Z,1.30
2018-12-12T02:26:41.537Z,1.30
2018-12-12T02:29:10.168Z,1.30
2018-12-12T02:31:41.216Z,1.40
2018-12-12T02:34:10.865Z,1.40
2018-12-12T02:36:39.648Z,1.50
2018-12-12T02:39:08.855Z,1.60
2018-12-12T02:41:37.905Z,1.70
2018-12-12T02:44:06.894Z,1.70
2018-12-12T02:46:35.953Z,1.70
2018-12-12T02:49:04.671Z,1.70
2018-12-12T02:51:33.443Z,1.80
2018-12-12T02:54:04.580Z,1.90
2018-12-12T02:56:33.629Z,1.90
2018-12-12T02:59:04.292Z,1.80
2018-12-12T03:01:32.816Z,1.60
2018-12-12T03:04:02.537Z,1.50
2018-12-12T03:06:31.664Z,1.40
2018-12-12T03:09:01.665Z,1.50
2018-12-12T03:11:30.883Z,1.40
2018-12-12T03:14:00.501Z,1.40
2018-12-12T03:16:29.199Z,1.40
2018-12-12T03:19:03.428Z,1.40
2018-12-12T03:21:32.671Z,1.30
2018-12-12T03:24:02.856Z,1.30
2018-12-12T03:26:32.858Z,1.40
2018-12-12T03:29:02.189Z,1.40
2018-12-12T03:31:32.825Z,1.40
2018-12-12T03:34:01.799Z,1.40
2018-12-12T03:36:31.649Z,1.40
2018-12-12T03:39:00.832Z,1.50
2018-12-12T03:41:30.081Z,1.40
2018-12-12T03:43:59.534Z,1.50
2018-12-12T03:46:29.014Z,1.60
2018-12-12T03:48:58.627Z,1.70
2018-12-12T03:51:28.570Z,1.70
2018-12-12T03:53:57.808Z,1.70
2018-12-12T03:56:27.174Z,1.60
2018-12-12T03:58:56.772Z,1.60
2018-12-12T04:01:25.725Z,1.60
2018-12-12T04:03:54.612Z,1.70
2018-12-12T04:06:23.873Z,1.60
2018-12-12T04:08:53.839Z,1.70
2018-12-12T04:11:23.492Z,1.80
2018-12-12T04:13:53.154Z,1.90
2018-12-12T04:16:22.896Z,1.80
2018-12-12T04:18:52.048Z,1.80
2018-12-12T04:21:22.144Z,1.80
2018-12-12T04:23:55.457Z,1.70
2018-12-12T04:26:24.645Z,1.70
2018-12-12T04:28:54.011Z,1.70
2018-12-12T04:31:22.819Z,1.60
2018-12-12T04:33:52.612Z,1.60
2018-12-12T04:36:22.053Z,1.70
2018-12-12T04:38:51.023Z,1.60
2018-12-12T04:41:25.531Z,1.70
2018-12-12T04:43:55.549Z,1.70
2018-12-12T04:46:25.442Z,1.70
2018-12-12T04:48:54.465Z,1.70
2018-12-12T04:51:24.736Z,1.70
2018-12-12T04:53:54.526Z,1.70
2018-12-12T04:56:24.419Z,1.70
2018-12-12T04:58:55.663Z,1.70
2018-12-12T05:01:25.380Z,1.80
2018-12-12T05:03:53.973Z,1.80
2018-12-12T05:06:23.404Z,1.80
2018-12-12T05:08:52.118Z,2.00
2018-12-12T05:11:21.213Z,2.00
2018-12-12T05:13:49.989Z,1.90
2018-12-12T05:16:19.648Z,1.90
2018-12-12T05:18:49.244Z,1.90
2018-12-12T05:21:18.437Z,1.90
2018-12-12T05:23:48.276Z,2.00
2018-12-12T05:26:17.501Z,2.00
2018-12-12T05:28:48.647Z,2.00
2018-12-12T05:31:18.376Z,2.10
2018-12-12T05:33:48.516Z,2.10
2018-12-12T05:36:18.233Z,2.10
2018-12-12T05:38:47.569Z,2.10
2018-12-12T05:41:17.025Z,2.10
2018-12-12T05:43:46.762Z,2.10
2018-12-12T05:46:16.449Z,2.20
2018-12-12T05:48:44.742Z,2.20
2018-12-12T05:51:13.485Z,2.20
2018-12-12T05:53:41.952Z,2.20
2018-12-12T05:56:14.133Z,2.20
2018-12-12T05:58:42.165Z,2.20
2018-12-12T06:01:11.329Z,2.20
2018-12-12T06:03:40.888Z,2.20
2018-12-12T06:06:10.388Z,2.20
2018-12-12T06:08:39.316Z,2.20
2018-12-12T06:11:08.960Z,2.20
2018-12-12T06:13:37.775Z,2.20
2018-12-12T06:16:08.457Z,2.20
2018-12-12T06:18:37.592Z,2.20
2018-12-12T06:21:07.798Z,2.20
2018-12-12T06:23:37.452Z,2.20
2018-12-12T06:26:06.693Z,2.30
2018-12-12T06:28:36.324Z,2.30
2018-12-12T06:31:06.143Z,2.20
2018-12-12T06:33:35.315Z,2.20
2018-12-12T06:36:04.505Z,2.30
2018-12-12T06:38:34.996Z,2.30
2018-12-12T06:41:05.096Z,2.40
2018-12-12T06:43:35.272Z,2.30
2018-12-12T06:46:05.088Z,2.30
2018-12-12T06:48:33.977Z,2.30
2018-12-12T06:51:02.901Z,2.30
2018-12-12T06:53:33.192Z,2.30
2018-12-12T06:56:02.749Z,2.30
2018-12-12T06:58:32.244Z,2.20
2018-12-12T07:01:01.364Z,2.20
2018-12-12T07:03:30.787Z,2.20
2018-12-12T07:06:00.283Z,2.20
2018-12-12T07:08:30.085Z,2.20
2018-12-12T07:11:00.320Z,2.20
2018-12-12T07:13:35.673Z,2.20
2018-12-12T07:16:01.450Z,2.20
2018-12-12T07:18:31.368Z,2.20
2018-12-12T07:21:00.456Z,2.20
2018-12-12T07:23:30.405Z,2.20
2018-12-12T07:26:01.031Z,2.20
2018-12-12T07:28:30.433Z,2.20
2018-12-12T07:30:59.883Z,2.20
2018-12-12T07:33:29.669Z,2.20
2018-12-12T07:35:59.623Z,2.20
2018-12-12T07:38:30.085Z,2.20
2018-12-12T07:40:59.449Z,2.20
2018-12-12T07:43:28.285Z,2.30
2018-12-12T07:45:58.920Z,2.30
2018-12-12T07:48:29.309Z,2.30
2018-12-12T07:50:58.753Z,2.20
2018-12-12T07:53:28.219Z,2.30
2018-12-12T07:55:57.528Z,2.30
2018-12-12T07:58:27.464Z,2.30
2018-12-12T08:00:57.952Z,2.30
2018-12-12T08:03:26.985Z,2.40
2018-12-12T08:05:56.165Z,2.30
2018-12-12T08:08:26.182Z,2.30
2018-12-12T08:10:56.102Z,2.30
2018-12-12T08:13:28.381Z,2.30
2018-12-12T08:15:57.924Z,2.30
2018-12-12T08:18:26.986Z,2.30
2018-12-12T08:20:56.148Z,2.30
2018-12-12T08:23:26.131Z,2.30
2018-12-12T08:25:55.502Z,2.30
2018-12-12T08:28:24.830Z,2.30
2018-12-12T08:30:58.721Z,2.30
2018-12-12T08:33:29.229Z,2.40
2018-12-12T08:35:58.996Z,2.30
2018-12-12T08:38:28.228Z,2.40
2018-12-12T08:40:57.535Z,2.40
2018-12-12T08:43:27.784Z,2.40
2018-12-12T08:45:58.077Z,2.40
2018-12-12T08:48:27.813Z,2.40
2018-12-12T08:50:57.986Z,2.40
2018-12-12T08:53:27.949Z,2.50
2018-12-12T08:55:57.695Z,2.40
2018-12-12T08:58:26.953Z,2.40
2018-12-12T09:00:57.392Z,2.40
2018-12-12T09:03:27.109Z,2.50
2018-12-12T09:05:57.095Z,2.50
2018-12-12T09:08:26.072Z,2.50
2018-12-12T09:10:56.841Z,2.50
2018-12-12T09:13:26.981Z,2.50
2018-12-12T09:15:58.149Z,2.60
2018-12-12T09:18:27.901Z,2.60
2018-12-12T09:20:58.779Z,2.60
2018-12-12T09:23:28.364Z,2.60
2018-12-12T09:25:57.199Z,2.50
2018-12-12T09:28:25.997Z,2.50
2018-12-12T09:30:55.765Z,2.50
2018-12-12T09:33:26.316Z,2.60
2018-12-12T09:35:56.021Z,2.60
2018-12-12T09:38:26.508Z,2.50
2018-12-12T09:40:55.011Z,2.50
2018-12-12T09:43:23.574Z,2.50
2018-12-12T09:45:53.070Z,2.50
2018-12-12T09:48:22.393Z,2.60
2018-12-12T09:50:51.937Z,2.60
2018-12-12T09:53:22.625Z,2.60
2018-12-12T09:55:52.264Z,2.60
2018-12-12T09:58:21.394Z,2.60
2018-12-12T10:00:50.689Z,2.70
2018-12-12T10:03:22.920Z,2.70
2018-12-12T10:05:54.022Z,2.80
2018-12-12T10:08:23.132Z,2.80
2018-12-12T10:10:51.644Z,2.70
2018-12-12T10:13:21.569Z,2.70
2018-12-12T10:15:51.936Z,2.80
2018-12-12T10:18:21.728Z,2.70
2018-12-12T10:20:51.559Z,2.70
2018-12-12T10:23:20.790Z,2.60
2018-12-12T10:25:49.639Z,2.50
2018-12-12T10:28:19.904Z,2.40
2018-12-12T10:30:49.790Z,2.40
2018-12-12T10:33:19.458Z,2.30
2018-12-12T10:35:49.986Z,2.30
2018-12-12T10:38:19.061Z,2.30
2018-12-12T10:40:48.684Z,2.20
2018-12-12T10:43:18.202Z,2.20
2018-12-12T10:45:47.165Z,2.20
2018-12-12T10:48:15.612Z,2.20
2018-12-12T10:50:44.484Z,2.10
2018-12-12T10:53:13.581Z,2.10
2018-12-12T10:55:43.547Z,2.10
2018-12-12T10:58:12.589Z,2.00
2018-12-12T11:00:44.586Z,2.00
2018-12-12T11:03:18.327Z,2.10
2018-12-12T11:05:49.417Z,2.10
2018-12-12T11:08:19.528Z,2.10
2018-12-12T11:10:49.473Z,2.00
2018-12-12T11:13:18.654Z,2.00
2018-12-12T11:15:47.910Z,2.00
2018-12-12T11:18:17.618Z,2.00
2018-12-12T11:20:47.139Z,2.00
2018-12-12T11:23:17.152Z,2.10
2018-12-12T11:25:47.041Z,2.00
2018-12-12T11:28:17.828Z,2.00
2018-12-12T11:30:47.233Z,2.00
2018-12-12T11:33:16.965Z,2.00
2018-12-12T11:35:47.618Z,2.00
2018-12-12T11:38:17.625Z,2.00
2018-12-12T11:40:47.971Z,2.10
2018-12-12T11:43:17.669Z,2.10
2018-12-12T11:45:49.464Z,2.10
2018-12-12T11:48:20.110Z,2.10
2018-12-12T11:50:49.951Z,2.20
2018-12-12T11:53:19.637Z,2.10
2018-12-12T11:55:48.911Z,2.10
2018-12-12T11:58:19.684Z,2.10
2018-12-12T12:00:49.205Z,2.30
2018-12-12T12:03:19.257Z,2.30
2018-12-12T12:05:48.541Z,2.30
2018-12-12T12:08:17.235Z,2.40
2018-12-12T12:10:45.316Z,2.40
2018-12-12T12:13:14.379Z,2.40
2018-12-12T12:15:44.294Z,2.30
2018-12-12T12:18:13.892Z,2.30
2018-12-12T12:20:43.712Z,2.30
2018-12-12T12:23:14.429Z,2.20
2018-12-12T12:25:44.260Z,2.20
2018-12-12T12:28:13.617Z,2.20
2018-12-12T12:30:43.585Z,2.20
2018-12-12T12:33:13.286Z,2.20
2018-12-12T12:35:42.947Z,2.20
2018-12-12T12:38:12.698Z,2.20
2018-12-12T12:40:43.521Z,2.20
2018-12-12T12:43:12.768Z,2.10
2018-12-12T12:45:42.599Z,2.10
2018-12-12T12:48:12.468Z,2.10
2018-12-12T12:50:42.436Z,2.10
2018-12-12T12:53:12.878Z,2.10
2018-12-12T12:55:42.644Z,2.10
2018-12-12T12:58:13.252Z,2.10
2018-12-12T13:00:44.385Z,2.10
2018-12-12T13:03:13.686Z,2.20
2018-12-12T13:05:44.715Z,2.20
2018-12-12T13:08:14.168Z,2.20
2018-12-12T13:10:44.700Z,2.10
2018-12-12T13:13:13.975Z,2.10
2018-12-12T13:15:43.725Z,2.20
2018-12-12T13:18:12.743Z,2.10
2018-12-12T13:20:41.743Z,2.10
2018-12-12T13:23:11.216Z,2.10
2018-12-12T13:25:41.036Z,2.00
2018-12-12T13:28:11.430Z,2.00
2018-12-12T13:30:40.448Z,1.90
2018-12-12T13:33:09.740Z,1.90
2018-12-12T13:35:39.081Z,1.90
2018-12-12T13:38:08.306Z,1.90
2018-12-12T13:40:38.349Z,2.00
2018-12-12T13:43:08.348Z,1.90
2018-12-12T13:45:37.574Z,1.70
2018-12-12T13:48:06.894Z,1.50
2018-12-12T13:50:36.637Z,1.40
2018-12-12T13:53:05.128Z,1.30
2018-12-12T13:55:33.224Z,1.40
2018-12-12T13:58:03.523Z,1.30
2018-12-12T14:00:38.970Z,1.20
2018-12-12T14:03:04.556Z,1.20
2018-12-12T14:05:33.406Z,1.20
2018-12-12T14:08:02.201Z,1.30
2018-12-12T14:10:31.556Z,1.30
2018-12-12T14:13:01.139Z,1.40
2018-12-12T14:18:35.230Z,1.40
2018-12-12T14:21:10.318Z,1.50
2018-12-12T14:23:43.238Z,1.60
2018-12-12T14:26:16.141Z,1.70
2018-12-12T14:28:50.826Z,1.80
2018-12-12T14:31:23.839Z,1.80
2018-12-12T14:33:57.546Z,1.90
2018-12-12T14:36:32.262Z,1.80
2018-12-12T14:54:25.803Z,2.00
2018-12-12T14:57:04.546Z,2.00
2018-12-12T15:02:24.379Z,2.00
2018-12-12T15:05:04.377Z,2.00
2018-12-12T15:07:37.517Z,1.90
2018-12-12T15:10:12.003Z,1.90
2018-12-12T15:12:44.971Z,1.90
2018-12-12T15:15:25.375Z,1.90
2018-12-12T15:18:00.281Z,2.00
2018-12-12T15:20:37.990Z,2.00
2018-12-12T15:23:16.613Z,1.90
2018-12-12T15:25:56.071Z,1.90
2018-12-12T15:28:29.996Z,1.90
2018-12-12T15:31:09.801Z,2.00
2018-12-12T15:33:47.720Z,2.00
2018-12-12T15:36:21.891Z,2.00
2018-12-12T15:38:56.164Z,2.00
2018-12-12T15:41:34.841Z,2.00
2018-12-12T15:44:07.137Z,2.10
2018-12-12T15:46:39.976Z,2.00
2018-12-12T15:49:13.608Z,2.10
2018-12-12T15:51:47.510Z,2.10
2018-12-12T15:54:21.156Z,2.10
2018-12-12T15:56:56.613Z,2.00
2018-12-12T15:59:36.771Z,2.10
2018-12-12T16:02:12.051Z,2.00
2018-12-12T16:04:49.518Z,2.00
2018-12-12T16:07:22.885Z,2.00
2018-12-12T16:10:05.641Z,2.00
2018-12-12T16:12:38.323Z,2.00
2018-12-12T16:15:11.676Z,2.00
2018-12-12T16:17:45.869Z,1.90
2018-12-12T16:20:18.273Z,1.90
2018-12-12T16:22:56.932Z,1.90
2018-12-12T16:25:29.480Z,1.90
2018-12-12T16:28:04.295Z,1.90
2018-12-12T16:30:38.636Z,1.80
2018-12-12T16:33:15.726Z,1.80
2018-12-12T16:35:49.046Z,1.80
2018-12-12T16:38:22.083Z,1.80
2018-12-12T16:40:59.705Z,1.80
2018-12-12T16:43:32.493Z,1.80
2018-12-12T16:46:10.495Z,1.80
2018-12-12T16:48:48.938Z,1.80
2018-12-12T16:51:24.082Z,1.80
2018-12-12T16:53:59.485Z,1.80
2018-12-12T16:56:32.884Z,1.80
2018-12-12T16:59:07.020Z,1.80
2018-12-12T17:01:40.337Z,1.80
2018-12-12T17:04:16.123Z,1.80
2018-12-12T17:06:51.009Z,1.80
2018-12-12T17:09:29.242Z,1.80
2018-12-12T17:12:14.169Z,1.80
2018-12-12T17:14:49.745Z,1.80
2018-12-12T17:17:23.400Z,1.80
2018-12-12T17:22:45.848Z,1.90
2018-12-12T17:25:21.094Z,1.90
2018-12-12T17:27:55.367Z,1.90
2018-12-12T17:30:28.049Z,1.80
2018-12-12T17:33:02.763Z,1.70
2018-12-12T17:35:38.472Z,1.70
2018-12-12T17:38:17.178Z,1.80
2018-12-12T17:40:49.257Z,1.80
2018-12-12T17:43:27.544Z,1.80
2018-12-12T17:46:01.114Z,1.80
2018-12-12T17:48:35.956Z,1.80
2018-12-12T17:51:10.168Z,1.80
2018-12-12T17:53:44.484Z,1.80
2018-12-12T17:56:17.896Z,1.80
2018-12-12T17:58:52.782Z,1.80
2018-12-12T18:01:27.081Z,1.80
2018-12-12T18:06:32.711Z,1.80
2018-12-12T18:09:06.920Z,1.70
2018-12-12T18:11:39.758Z,1.70
2018-12-12T18:14:14.630Z,1.70
2018-12-12T18:16:49.075Z,1.70
2018-12-12T18:19:23.450Z,1.70
2018-12-12T18:21:55.323Z,1.70
2018-12-12T18:24:31.930Z,1.80
2018-12-12T18:27:04.813Z,1.80
2018-12-12T18:29:37.713Z,1.80
2018-12-12T18:32:10.705Z,1.90
2018-12-12T18:34:44.961Z,1.90
2018-12-12T18:37:19.406Z,1.90
2018-12-12T18:39:52.949Z,1.80
2018-12-12T18:42:27.306Z,1.80
2018-12-12T18:45:06.578Z,1.80
2018-12-12T18:47:40.823Z,1.70
2018-12-12T18:50:13.174Z,1.60
2018-12-12T18:52:54.501Z,1.60
2018-12-12T18:55:28.779Z,1.60
2018-12-12T18:58:03.477Z,1.50
2018-12-12T19:00:36.906Z,1.50
2018-12-12T19:03:10.992Z,1.50
2018-12-12T19:05:49.092Z,1.50
2018-12-12T19:08:23.745Z,1.40
2018-12-12T19:10:58.311Z,1.40
2018-12-12T19:13:33.314Z,1.40
2018-12-12T19:16:08.009Z,1.40
2018-12-12T19:18:43.001Z,1.30
2018-12-12T19:21:17.539Z,1.20
2018-12-12T19:23:51.720Z,1.20
2018-12-12T19:26:26.256Z,1.20
2018-12-12T19:28:59.121Z,1.20
2018-12-12T19:34:27.599Z,1.40
2018-12-12T19:37:02.247Z,1.40
2018-12-12T19:42:14.581Z,1.40
2018-12-12T19:44:49.481Z,1.50
2018-12-12T19:47:25.296Z,1.50
2018-12-12T19:49:59.647Z,1.50
2018-12-12T19:52:32.108Z,1.50
2018-12-12T19:55:05.713Z,1.60
2018-12-12T20:00:41.906Z,1.60
2018-12-12T20:03:16.107Z,1.60
2018-12-12T20:05:50.403Z,1.60
2018-12-12T20:08:26.251Z,1.70
2018-12-12T20:11:00.477Z,1.60
2018-12-12T20:13:35.175Z,1.70
2018-12-12T20:16:09.123Z,1.60
2018-12-12T20:18:43.590Z,1.70
2018-12-12T20:21:16.561Z,1.70
2018-12-12T20:23:50.885Z,1.70
2018-12-12T20:26:24.259Z,1.70
2018-12-12T20:29:01.927Z,1.70
2018-12-12T20:31:38.005Z,1.70
2018-12-12T20:34:11.645Z,1.70
2018-12-12T20:36:44.658Z,1.60
2018-12-12T20:39:21.191Z,1.70
2018-12-12T20:41:54.144Z,1.70
2018-12-12T20:44:37.685Z,1.60
2018-12-12T20:47:08.324Z,1.60
2018-12-12T20:52:24.166Z,1.60
2018-12-12T20:55:00.562Z,1.60
2018-12-12T20:57:41.277Z,1.50
2018-12-12T21:00:13.073Z,1.40
2018-12-12T21:02:45.904Z,1.40
2018-12-12T21:05:19.374Z,1.30
2018-12-12T21:07:56.139Z,1.40
2018-12-12T21:10:29.451Z,1.30
2018-12-12T21:13:03.517Z,1.30
2018-12-12T21:18:33.607Z,1.30
2018-12-12T21:21:12.401Z,1.40
2018-12-12T21:23:46.731Z,1.30
2018-12-12T21:26:20.292Z,1.40
2018-12-12T21:28:58.500Z,1.50
2018-12-12T21:31:32.946Z,1.50
2018-12-12T21:34:07.505Z,1.40
2018-12-12T21:36:41.225Z,1.50
2018-12-12T21:39:14.699Z,1.50
2018-12-12T21:41:51.750Z,1.40
2018-12-12T21:44:24.361Z,1.40
2018-12-12T21:46:59.259Z,1.40
2018-12-12T21:49:32.359Z,1.40
2018-12-12T21:52:04.870Z,1.30
2018-12-12T21:54:37.759Z,1.30
2018-12-12T21:57:14.562Z,1.30
2018-12-12T21:59:48.068Z,1.30
2018-12-12T22:02:22.281Z,1.30
2018-12-12T22:04:55.495Z,1.30
2018-12-12T22:07:30.204Z,1.30
2018-12-12T22:10:03.054Z,1.30
2018-12-12T22:12:44.878Z,1.30
2018-12-12T22:17:58.835Z,1.40
2018-12-12T22:20:32.659Z,1.40
2018-12-12T22:23:07.654Z,1.40
2018-12-12T22:25:41.355Z,1.40
2018-12-12T22:28:20.101Z,1.40
2018-12-12T22:30:54.674Z,1.30
2018-12-12T22:33:27.464Z,1.30
2018-12-12T22:36:02.296Z,1.30
2018-12-12T22:38:36.923Z,1.30
2018-12-12T22:41:09.651Z,1.30
2018-12-12T22:43:44.173Z,1.40
2018-12-12T22:46:17.286Z,1.40
2018-12-12T22:48:50.536Z,1.50
2018-12-12T22:51:25.255Z,1.40
2018-12-12T22:54:03.225Z,1.50
2018-12-12T22:56:37.587Z,1.50
2018-12-12T22:59:09.713Z,1.50
2018-12-12T23:01:41.982Z,1.50
2018-12-12T23:04:15.048Z,1.50
2018-12-12T23:06:54.181Z,1.50
2018-12-12T23:09:32.258Z,1.50
2018-12-12T23:12:06.598Z,1.50
2018-12-12T23:14:43.528Z,1.60
2018-12-12T23:17:18.576Z,1.50
2018-12-12T23:19:51.469Z,1.60
2018-12-12T23:22:25.527Z,1.70
2018-12-12T23:24:58.607Z,1.50
2018-12-12T23:27:32.721Z,1.50
2018-12-12T23:30:07.236Z,1.40
2018-12-12T23:32:41.348Z,1.30
2018-12-12T23:35:14.156Z,1.20
2018-12-12T23:37:51.947Z,1.20
2018-12-12T23:40:24.798Z,1.10
2018-12-12T23:42:59.796Z,1.00
2018-12-12T23:45:34.542Z,1.10
2018-12-12T23:48:12.654Z,1.20
2018-12-12T23:50:49.182Z,1.40
2018-12-12T23:53:24.837Z,1.40
2018-12-12T23:55:57.823Z,1.40
2018-12-12T23:58:32.849Z,1.50
